sensor_id;sensor_type;location;lat;lon;timestamp;P1;durP1;ratioP1;P2;durP2;ratioP2
21843;SDS011;11084;52.482;9.108;2022-09-23T00:01:04;2.70;;;1.00;;
21843;SDS011;11084;52.482;9.108;2022-09-23T00:03:33;1.70;;;1.17;;
21843;SDS011;11084;52.482;9.108;2022-09-23T00:06:05;1.60;;;0.97;;
21843;SDS011;11084;52.482;9.108;2022-09-23T00:08:36;1.57;;;0.90;;
21843;SDS011;11084;52.482;9.108;2022-09-23T00:11:05;4.73;;;1.10;;
21843;SDS011;11084;52.482;9.108;2022-09-23T00:13:34;1.37;;;1.10;;
21843;SDS011;11084;52.482;9.108;2022-09-23T00:16:02;4.87;;;0.93;;
21843;SDS011;11084;52.482;9.108;2022-09-23T00:18:32;4.30;;;1.00;;
21843;SDS011;11084;52.482;9.108;2022-09-23T00:21:05;6.70;;;1.10;;
21843;SDS011;11084;52.482;9.108;2022-09-23T00:23:34;2.13;;;1.00;;
21843;SDS011;11084;52.482;9.108;2022-09-23T00:26:02;3.00;;;1.23;;
21843;SDS011;11084;52.482;9.108;2022-09-23T00:28:30;1.00;;;0.80;;
21843;SDS011;11084;52.482;9.108;2022-09-23T00:31:19;1.87;;;1.00;;
21843;SDS011;11084;52.482;9.108;2022-09-23T00:33:46;1.40;;;0.87;;
21843;SDS011;11084;52.482;9.108;2022-09-23T00:36:13;2.73;;;0.90;;
21843;SDS011;11084;52.482;9.108;2022-09-23T00:38:40;1.70;;;1.00;;
21843;SDS011;11084;52.482;9.108;2022-09-23T00:41:07;3.30;;;1.00;;
21843;SDS011;11084;52.482;9.108;2022-09-23T00:49:13;1.00;;;0.90;;
21843;SDS011;11084;52.482;9.108;2022-09-23T00:51:53;1.63;;;1.10;;
21843;SDS011;11084;52.482;9.108;2022-09-23T00:54:22;2.37;;;0.93;;
21843;SDS011;11084;52.482;9.108;2022-09-23T00:56:50;0.80;;;0.80;;
21843;SDS011;11084;52.482;9.108;2022-09-23T00:59:17;2.63;;;1.00;;
21843;SDS011;11084;52.482;9.108;2022-09-23T01:01:44;2.07;;;1.03;;
21843;SDS011;11084;52.482;9.108;2022-09-23T01:04:12;4.47;;;0.93;;
21843;SDS011;11084;52.482;9.108;2022-09-23T01:06:38;1.60;;;0.90;;
21843;SDS011;11084;52.482;9.108;2022-09-23T01:09:05;2.33;;;0.87;;
21843;SDS011;11084;52.482;9.108;2022-09-23T01:11:36;1.20;;;0.90;;
21843;SDS011;11084;52.482;9.108;2022-09-23T01:36:28;1.33;;;1.00;;
21843;SDS011;11084;52.482;9.108;2022-09-23T01:39:11;1.77;;;1.27;;
21843;SDS011;11084;52.482;9.108;2022-09-23T01:42:19;2.70;;;0.80;;
21843;SDS011;11084;52.482;9.108;2022-09-23T01:45:13;1.40;;;1.10;;
21843;SDS011;11084;52.482;9.108;2022-09-23T01:51:05;2.50;;;1.10;;
21843;SDS011;11084;52.482;9.108;2022-09-23T01:56:33;0.87;;;0.87;;
21843;SDS011;11084;52.482;9.108;2022-09-23T01:59:51;7.40;;;1.00;;
21843;SDS011;11084;52.482;9.108;2022-09-23T02:04:59;1.57;;;0.80;;
21843;SDS011;11084;52.482;9.108;2022-09-23T02:07:38;1.17;;;1.07;;
21843;SDS011;11084;52.482;9.108;2022-09-23T02:10:33;4.00;;;1.10;;
21843;SDS011;11084;52.482;9.108;2022-09-23T02:13:27;0.80;;;0.80;;
21843;SDS011;11084;52.482;9.108;2022-09-23T02:16:36;2.30;;;0.70;;
21843;SDS011;11084;52.482;9.108;2022-09-23T02:21:55;1.27;;;0.90;;
21843;SDS011;11084;52.482;9.108;2022-09-23T02:24:32;2.90;;;1.13;;
21843;SDS011;11084;52.482;9.108;2022-09-23T02:27:05;0.70;;;0.70;;
21843;SDS011;11084;52.482;9.108;2022-09-23T02:32:35;1.30;;;1.00;;
21843;SDS011;11084;52.482;9.108;2022-09-23T02:40:39;1.17;;;0.90;;
21843;SDS011;11084;52.482;9.108;2022-09-23T02:43:41;3.47;;;0.97;;
21843;SDS011;11084;52.482;9.108;2022-09-23T02:46:34;3.60;;;0.70;;
21843;SDS011;11084;52.482;9.108;2022-09-23T02:51:51;1.70;;;1.00;;
21843;SDS011;11084;52.482;9.108;2022-09-23T02:54:19;0.80;;;0.80;;
21843;SDS011;11084;52.482;9.108;2022-09-23T02:56:51;1.77;;;0.90;;
21843;SDS011;11084;52.482;9.108;2022-09-23T02:59:18;1.23;;;0.90;;
21843;SDS011;11084;52.482;9.108;2022-09-23T03:07:50;3.13;;;1.00;;
21843;SDS011;11084;52.482;9.108;2022-09-23T03:10:54;1.00;;;0.90;;
21843;SDS011;11084;52.482;9.108;2022-09-23T03:16:41;1.00;;;0.90;;
21843;SDS011;11084;52.482;9.108;2022-09-23T03:22:09;10.27;;;1.00;;
21843;SDS011;11084;52.482;9.108;2022-09-23T03:24:39;5.23;;;1.13;;
21843;SDS011;11084;52.482;9.108;2022-09-23T03:27:11;3.70;;;1.00;;
21843;SDS011;11084;52.482;9.108;2022-09-23T03:29:44;5.77;;;1.10;;
21843;SDS011;11084;52.482;9.108;2022-09-23T03:32:17;0.93;;;0.87;;
21843;SDS011;11084;52.482;9.108;2022-09-23T03:34:47;6.83;;;0.90;;
21843;SDS011;11084;52.482;9.108;2022-09-23T03:37:20;0.93;;;0.77;;
21843;SDS011;11084;52.482;9.108;2022-09-23T03:40:02;1.40;;;1.03;;
21843;SDS011;11084;52.482;9.108;2022-09-23T03:42:32;0.80;;;0.80;;
21843;SDS011;11084;52.482;9.108;2022-09-23T03:44:59;2.57;;;1.13;;
21843;SDS011;11084;52.482;9.108;2022-09-23T03:47:33;1.43;;;1.03;;
21843;SDS011;11084;52.482;9.108;2022-09-23T03:50:01;3.50;;;0.93;;
21843;SDS011;11084;52.482;9.108;2022-09-23T03:52:27;3.87;;;0.90;;
21843;SDS011;11084;52.482;9.108;2022-09-23T03:54:53;3.47;;;0.97;;
21843;SDS011;11084;52.482;9.108;2022-09-23T03:57:19;0.93;;;0.83;;
21843;SDS011;11084;52.482;9.108;2022-09-23T03:59:46;1.73;;;1.13;;
21843;SDS011;11084;52.482;9.108;2022-09-23T04:02:14;0.80;;;0.80;;
21843;SDS011;11084;52.482;9.108;2022-09-23T04:04:42;0.77;;;0.77;;
21843;SDS011;11084;52.482;9.108;2022-09-23T04:07:08;3.77;;;0.90;;
21843;SDS011;11084;52.482;9.108;2022-09-23T04:09:35;1.73;;;0.90;;
21843;SDS011;11084;52.482;9.108;2022-09-23T04:12:02;1.03;;;0.83;;
21843;SDS011;11084;52.482;9.108;2022-09-23T04:14:29;1.43;;;1.00;;
21843;SDS011;11084;52.482;9.108;2022-09-23T04:16:55;1.93;;;0.80;;
21843;SDS011;11084;52.482;9.108;2022-09-23T04:19:21;1.97;;;1.00;;
21843;SDS011;11084;52.482;9.108;2022-09-23T04:21:48;2.97;;;1.07;;
21843;SDS011;11084;52.482;9.108;2022-09-23T04:24:14;1.13;;;0.90;;
21843;SDS011;11084;52.482;9.108;2022-09-23T04:26:41;1.77;;;1.10;;
21843;SDS011;11084;52.482;9.108;2022-09-23T04:29:08;7.10;;;1.13;;
21843;SDS011;11084;52.482;9.108;2022-09-23T04:31:36;2.20;;;0.97;;
21843;SDS011;11084;52.482;9.108;2022-09-23T04:34:02;2.70;;;0.80;;
21843;SDS011;11084;52.482;9.108;2022-09-23T04:36:28;1.43;;;1.00;;
21843;SDS011;11084;52.482;9.108;2022-09-23T04:38:54;2.00;;;1.00;;
21843;SDS011;11084;52.482;9.108;2022-09-23T04:41:21;1.33;;;1.20;;
21843;SDS011;11084;52.482;9.108;2022-09-23T04:43:47;0.97;;;0.90;;
21843;SDS011;11084;52.482;9.108;2022-09-23T04:46:13;3.40;;;1.00;;
21843;SDS011;11084;52.482;9.108;2022-09-23T04:48:41;5.90;;;1.10;;
21843;SDS011;11084;52.482;9.108;2022-09-23T04:51:08;2.80;;;1.00;;
21843;SDS011;11084;52.482;9.108;2022-09-23T04:53:41;9.07;;;1.17;;
21843;SDS011;11084;52.482;9.108;2022-09-23T04:56:11;1.83;;;0.90;;
21843;SDS011;11084;52.482;9.108;2022-09-23T04:58:41;0.80;;;0.80;;
21843;SDS011;11084;52.482;9.108;2022-09-23T05:03:37;1.17;;;1.03;;
21843;SDS011;11084;52.482;9.108;2022-09-23T05:06:03;0.70;;;0.70;;
21843;SDS011;11084;52.482;9.108;2022-09-23T05:08:30;1.47;;;1.37;;
21843;SDS011;11084;52.482;9.108;2022-09-23T05:11:00;0.80;;;0.67;;
21843;SDS011;11084;52.482;9.108;2022-09-23T05:13:29;2.30;;;1.03;;
21843;SDS011;11084;52.482;9.108;2022-09-23T05:16:00;1.63;;;0.90;;
21843;SDS011;11084;52.482;9.108;2022-09-23T05:18:29;2.57;;;1.27;;
21843;SDS011;11084;52.482;9.108;2022-09-23T05:20:57;1.10;;;1.00;;
21843;SDS011;11084;52.482;9.108;2022-09-23T05:23:24;1.33;;;1.10;;
21843;SDS011;11084;52.482;9.108;2022-09-23T05:25:58;2.63;;;0.97;;
21843;SDS011;11084;52.482;9.108;2022-09-23T05:28:30;1.20;;;1.17;;
21843;SDS011;11084;52.482;9.108;2022-09-23T05:31:04;0.90;;;0.90;;
21843;SDS011;11084;52.482;9.108;2022-09-23T05:33:36;4.63;;;0.93;;
21843;SDS011;11084;52.482;9.108;2022-09-23T05:36:03;1.47;;;1.00;;
21843;SDS011;11084;52.482;9.108;2022-09-23T05:38:30;2.67;;;1.20;;
21843;SDS011;11084;52.482;9.108;2022-09-23T05:40:58;2.87;;;1.20;;
21843;SDS011;11084;52.482;9.108;2022-09-23T05:43:32;2.83;;;1.10;;
21843;SDS011;11084;52.482;9.108;2022-09-23T05:46:06;1.23;;;1.13;;
21843;SDS011;11084;52.482;9.108;2022-09-23T05:48:42;4.97;;;1.20;;
21843;SDS011;11084;52.482;9.108;2022-09-23T05:51:16;2.40;;;1.20;;
21843;SDS011;11084;52.482;9.108;2022-09-23T05:53:44;1.67;;;0.90;;
21843;SDS011;11084;52.482;9.108;2022-09-23T05:56:12;1.30;;;1.20;;
21843;SDS011;11084;52.482;9.108;2022-09-23T05:58:41;1.37;;;1.07;;
21843;SDS011;11084;52.482;9.108;2022-09-23T06:01:08;1.47;;;0.90;;
21843;SDS011;11084;52.482;9.108;2022-09-23T06:03:51;1.73;;;1.40;;
21843;SDS011;11084;52.482;9.108;2022-09-23T06:06:32;2.20;;;1.10;;
21843;SDS011;11084;52.482;9.108;2022-09-23T06:09:04;2.00;;;1.40;;
21843;SDS011;11084;52.482;9.108;2022-09-23T06:11:32;1.93;;;1.53;;
21843;SDS011;11084;52.482;9.108;2022-09-23T06:14:02;3.77;;;1.07;;
21843;SDS011;11084;52.482;9.108;2022-09-23T06:16:29;1.27;;;1.03;;
21843;SDS011;11084;52.482;9.108;2022-09-23T06:18:58;1.20;;;0.90;;
21843;SDS011;11084;52.482;9.108;2022-09-23T06:21:29;1.63;;;1.20;;
21843;SDS011;11084;52.482;9.108;2022-09-23T06:23:56;1.87;;;1.10;;
21843;SDS011;11084;52.482;9.108;2022-09-23T06:26:24;1.00;;;1.00;;
21843;SDS011;11084;52.482;9.108;2022-09-23T06:28:51;1.20;;;1.10;;
21843;SDS011;11084;52.482;9.108;2022-09-23T06:31:16;2.27;;;1.10;;
21843;SDS011;11084;52.482;9.108;2022-09-23T06:33:43;2.60;;;1.13;;
21843;SDS011;11084;52.482;9.108;2022-09-23T06:36:10;7.30;;;1.00;;
21843;SDS011;11084;52.482;9.108;2022-09-23T06:38:38;1.20;;;1.10;;
21843;SDS011;11084;52.482;9.108;2022-09-23T06:41:09;4.37;;;1.30;;
21843;SDS011;11084;52.482;9.108;2022-09-23T06:43:36;2.90;;;1.10;;
21843;SDS011;11084;52.482;9.108;2022-09-23T06:46:03;3.53;;;1.30;;
21843;SDS011;11084;52.482;9.108;2022-09-23T06:48:30;1.87;;;1.37;;
21843;SDS011;11084;52.482;9.108;2022-09-23T06:50:59;1.87;;;1.00;;
21843;SDS011;11084;52.482;9.108;2022-09-23T06:53:29;2.27;;;1.00;;
21843;SDS011;11084;52.482;9.108;2022-09-23T06:55:59;1.43;;;0.70;;
21843;SDS011;11084;52.482;9.108;2022-09-23T06:58:27;1.30;;;1.00;;
21843;SDS011;11084;52.482;9.108;2022-09-23T07:01:02;1.07;;;0.97;;
21843;SDS011;11084;52.482;9.108;2022-09-23T07:03:34;5.10;;;1.17;;
21843;SDS011;11084;52.482;9.108;2022-09-23T07:06:01;1.03;;;0.93;;
21843;SDS011;11084;52.482;9.108;2022-09-23T07:08:28;1.30;;;0.80;;
21843;SDS011;11084;52.482;9.108;2022-09-23T07:10:58;1.90;;;1.10;;
21843;SDS011;11084;52.482;9.108;2022-09-23T07:13:28;1.00;;;0.80;;
21843;SDS011;11084;52.482;9.108;2022-09-23T07:15:57;4.17;;;1.17;;
21843;SDS011;11084;52.482;9.108;2022-09-23T07:18:26;1.77;;;1.13;;
21843;SDS011;11084;52.482;9.108;2022-09-23T07:20:55;8.20;;;1.20;;
21843;SDS011;11084;52.482;9.108;2022-09-23T07:23:24;0.80;;;0.80;;
21843;SDS011;11084;52.482;9.108;2022-09-23T07:25:50;1.90;;;1.00;;
21843;SDS011;11084;52.482;9.108;2022-09-23T07:28:17;3.07;;;1.20;;
21843;SDS011;11084;52.482;9.108;2022-09-23T07:30:43;1.60;;;0.80;;
21843;SDS011;11084;52.482;9.108;2022-09-23T07:33:11;2.03;;;1.27;;
21843;SDS011;11084;52.482;9.108;2022-09-23T07:35:38;2.13;;;1.23;;
21843;SDS011;11084;52.482;9.108;2022-09-23T07:38:06;2.63;;;0.90;;
21843;SDS011;11084;52.482;9.108;2022-09-23T07:40:33;1.53;;;1.20;;
21843;SDS011;11084;52.482;9.108;2022-09-23T07:42:59;1.47;;;0.93;;
21843;SDS011;11084;52.482;9.108;2022-09-23T07:45:26;2.20;;;1.13;;
21843;SDS011;11084;52.482;9.108;2022-09-23T07:47:52;1.97;;;1.00;;
21843;SDS011;11084;52.482;9.108;2022-09-23T07:50:19;1.00;;;0.90;;
21843;SDS011;11084;52.482;9.108;2022-09-23T07:52:46;3.27;;;1.43;;
21843;SDS011;11084;52.482;9.108;2022-09-23T07:55:14;2.10;;;0.90;;
21843;SDS011;11084;52.482;9.108;2022-09-23T07:57:40;2.37;;;1.10;;
21843;SDS011;11084;52.482;9.108;2022-09-23T08:00:06;1.43;;;1.00;;
21843;SDS011;11084;52.482;9.108;2022-09-23T08:02:36;2.37;;;1.23;;
21843;SDS011;11084;52.482;9.108;2022-09-23T08:05:05;3.37;;;0.90;;
21843;SDS011;11084;52.482;9.108;2022-09-23T08:07:31;0.80;;;0.80;;
21843;SDS011;11084;52.482;9.108;2022-09-23T08:10:02;2.17;;;1.20;;
21843;SDS011;11084;52.482;9.108;2022-09-23T08:12:28;0.90;;;0.90;;
21843;SDS011;11084;52.482;9.108;2022-09-23T08:14:55;4.00;;;1.03;;
21843;SDS011;11084;52.482;9.108;2022-09-23T08:17:22;2.43;;;1.03;;
21843;SDS011;11084;52.482;9.108;2022-09-23T08:19:48;3.10;;;1.20;;
21843;SDS011;11084;52.482;9.108;2022-09-23T08:22:14;2.30;;;1.30;;
21843;SDS011;11084;52.482;9.108;2022-09-23T08:24:40;3.03;;;1.30;;
21843;SDS011;11084;52.482;9.108;2022-09-23T08:27:06;3.27;;;1.13;;
21843;SDS011;11084;52.482;9.108;2022-09-23T08:29:32;2.63;;;1.30;;
21843;SDS011;11084;52.482;9.108;2022-09-23T08:31:59;7.17;;;1.33;;
21843;SDS011;11084;52.482;9.108;2022-09-23T08:34:26;2.60;;;1.83;;
21843;SDS011;11084;52.482;9.108;2022-09-23T08:36:52;1.10;;;1.00;;
21843;SDS011;11084;52.482;9.108;2022-09-23T08:39:19;1.77;;;1.10;;
21843;SDS011;11084;52.482;9.108;2022-09-23T08:41:57;1.30;;;0.90;;
21843;SDS011;11084;52.482;9.108;2022-09-23T08:44:51;5.73;;;1.20;;
21843;SDS011;11084;52.482;9.108;2022-09-23T08:47:25;4.40;;;1.03;;
21843;SDS011;11084;52.482;9.108;2022-09-23T08:52:30;4.57;;;1.50;;
21843;SDS011;11084;52.482;9.108;2022-09-23T08:55:03;18.53;;;2.37;;
21843;SDS011;11084;52.482;9.108;2022-09-23T09:00:41;9.57;;;1.83;;
21843;SDS011;11084;52.482;9.108;2022-09-23T09:03:33;1.90;;;1.27;;
21843;SDS011;11084;52.482;9.108;2022-09-23T09:06:03;3.27;;;1.30;;
21843;SDS011;11084;52.482;9.108;2022-09-23T09:08:30;2.33;;;1.00;;
21843;SDS011;11084;52.482;9.108;2022-09-23T09:11:02;4.97;;;1.53;;
21843;SDS011;11084;52.482;9.108;2022-09-23T09:13:34;3.77;;;1.03;;
21843;SDS011;11084;52.482;9.108;2022-09-23T09:18:53;4.80;;;1.10;;
21843;SDS011;11084;52.482;9.108;2022-09-23T09:21:25;2.50;;;1.10;;
21843;SDS011;11084;52.482;9.108;2022-09-23T09:24:03;2.57;;;1.10;;
21843;SDS011;11084;52.482;9.108;2022-09-23T09:26:44;4.10;;;1.00;;
21843;SDS011;11084;52.482;9.108;2022-09-23T09:29:14;1.43;;;1.13;;
21843;SDS011;11084;52.482;9.108;2022-09-23T09:31:48;7.47;;;1.47;;
21843;SDS011;11084;52.482;9.108;2022-09-23T09:37:09;4.10;;;1.33;;
21843;SDS011;11084;52.482;9.108;2022-09-23T09:39:49;2.20;;;1.47;;
21843;SDS011;11084;52.482;9.108;2022-09-23T09:42:19;3.27;;;1.40;;
21843;SDS011;11084;52.482;9.108;2022-09-23T09:45:02;2.90;;;1.10;;
21843;SDS011;11084;52.482;9.108;2022-09-23T09:53:20;2.10;;;1.13;;
21843;SDS011;11084;52.482;9.108;2022-09-23T09:56:02;4.33;;;1.10;;
21843;SDS011;11084;52.482;9.108;2022-09-23T09:58:39;2.83;;;0.90;;
21843;SDS011;11084;52.482;9.108;2022-09-23T10:01:30;4.53;;;1.27;;
21843;SDS011;11084;52.482;9.108;2022-09-23T10:04:20;1.43;;;1.10;;
21843;SDS011;11084;52.482;9.108;2022-09-23T10:07:07;2.40;;;1.23;;
21843;SDS011;11084;52.482;9.108;2022-09-23T10:09:39;5.47;;;1.27;;
21843;SDS011;11084;52.482;9.108;2022-09-23T10:12:20;1.90;;;1.00;;
21843;SDS011;11084;52.482;9.108;2022-09-23T10:14:50;3.07;;;1.30;;
21843;SDS011;11084;52.482;9.108;2022-09-23T10:17:33;3.17;;;1.17;;
21843;SDS011;11084;52.482;9.108;2022-09-23T10:20:13;2.13;;;1.10;;
21843;SDS011;11084;52.482;9.108;2022-09-23T10:22:40;3.63;;;0.90;;
21843;SDS011;11084;52.482;9.108;2022-09-23T10:25:19;1.50;;;1.10;;
21843;SDS011;11084;52.482;9.108;2022-09-23T10:27:51;5.37;;;1.40;;
21843;SDS011;11084;52.482;9.108;2022-09-23T10:30:24;1.60;;;1.30;;
21843;SDS011;11084;52.482;9.108;2022-09-23T10:32:53;8.83;;;1.40;;
21843;SDS011;11084;52.482;9.108;2022-09-23T10:35:21;4.73;;;1.33;;
21843;SDS011;11084;52.482;9.108;2022-09-23T10:37:51;1.63;;;1.20;;
21843;SDS011;11084;52.482;9.108;2022-09-23T10:46:41;1.70;;;1.13;;
21843;SDS011;11084;52.482;9.108;2022-09-23T10:52:11;2.10;;;1.20;;
21843;SDS011;11084;52.482;9.108;2022-09-23T10:54:55;1.63;;;1.00;;
21843;SDS011;11084;52.482;9.108;2022-09-23T11:23:11;6.97;;;1.77;;
21843;SDS011;11084;52.482;9.108;2022-09-23T11:36:56;2.50;;;1.57;;
21843;SDS011;11084;52.482;9.108;2022-09-23T11:42:19;1.60;;;1.07;;
21843;SDS011;11084;52.482;9.108;2022-09-23T11:44:56;4.03;;;1.10;;
21843;SDS011;11084;52.482;9.108;2022-09-23T11:47:33;2.73;;;1.03;;
21843;SDS011;11084;52.482;9.108;2022-09-23T11:52:52;6.80;;;1.00;;
21843;SDS011;11084;52.482;9.108;2022-09-23T11:55:40;5.53;;;1.20;;
21843;SDS011;11084;52.482;9.108;2022-09-23T11:58:17;5.63;;;1.20;;
21843;SDS011;11084;52.482;9.108;2022-09-23T12:01:03;2.83;;;1.13;;
21843;SDS011;11084;52.482;9.108;2022-09-23T12:03:44;1.33;;;1.23;;
21843;SDS011;11084;52.482;9.108;2022-09-23T12:06:21;2.73;;;1.50;;
21843;SDS011;11084;52.482;9.108;2022-09-23T12:09:01;8.37;;;1.70;;
21843;SDS011;11084;52.482;9.108;2022-09-23T12:11:42;2.67;;;1.30;;
21843;SDS011;11084;52.482;9.108;2022-09-23T12:14:40;4.40;;;1.40;;
21843;SDS011;11084;52.482;9.108;2022-09-23T12:17:37;3.37;;;1.40;;
21843;SDS011;11084;52.482;9.108;2022-09-23T12:20:30;2.47;;;1.50;;
21843;SDS011;11084;52.482;9.108;2022-09-23T12:26:13;1.20;;;1.00;;
21843;SDS011;11084;52.482;9.108;2022-09-23T12:28:45;1.67;;;1.33;;
21843;SDS011;11084;52.482;9.108;2022-09-23T12:31:16;2.10;;;1.30;;
21843;SDS011;11084;52.482;9.108;2022-09-23T12:33:56;3.07;;;1.10;;
21843;SDS011;11084;52.482;9.108;2022-09-23T12:36:31;1.70;;;1.43;;
21843;SDS011;11084;52.482;9.108;2022-09-23T12:39:06;2.53;;;1.30;;
21843;SDS011;11084;52.482;9.108;2022-09-23T12:41:42;4.90;;;1.93;;
21843;SDS011;11084;52.482;9.108;2022-09-23T12:44:14;2.60;;;1.20;;
21843;SDS011;11084;52.482;9.108;2022-09-23T12:49:48;2.30;;;1.40;;
21843;SDS011;11084;52.482;9.108;2022-09-23T12:54:47;5.20;;;1.43;;
21843;SDS011;11084;52.482;9.108;2022-09-23T13:02:32;7.60;;;1.63;;
21843;SDS011;11084;52.482;9.108;2022-09-23T13:05:15;2.50;;;1.40;;
21843;SDS011;11084;52.482;9.108;2022-09-23T13:08:16;7.73;;;1.50;;
21843;SDS011;11084;52.482;9.108;2022-09-23T13:13:35;1.97;;;1.40;;
21843;SDS011;11084;52.482;9.108;2022-09-23T13:18:59;2.47;;;1.10;;
21843;SDS011;11084;52.482;9.108;2022-09-23T13:26:37;2.90;;;1.33;;
21843;SDS011;11084;52.482;9.108;2022-09-23T13:32:12;9.83;;;1.63;;
21843;SDS011;11084;52.482;9.108;2022-09-23T13:34:45;5.03;;;1.73;;
21843;SDS011;11084;52.482;9.108;2022-09-23T13:37:29;2.50;;;1.43;;
21843;SDS011;11084;52.482;9.108;2022-09-23T13:43:08;6.40;;;1.17;;
21843;SDS011;11084;52.482;9.108;2022-09-23T13:45:47;2.40;;;1.17;;
21843;SDS011;11084;52.482;9.108;2022-09-23T13:48:15;1.97;;;1.30;;
21843;SDS011;11084;52.482;9.108;2022-09-23T13:50:44;2.87;;;1.17;;
21843;SDS011;11084;52.482;9.108;2022-09-23T13:53:22;3.70;;;1.60;;
21843;SDS011;11084;52.482;9.108;2022-09-23T13:58:27;1.17;;;0.97;;
21843;SDS011;11084;52.482;9.108;2022-09-23T14:00:55;0.87;;;0.87;;
21843;SDS011;11084;52.482;9.108;2022-09-23T14:05:53;1.80;;;1.00;;
21843;SDS011;11084;52.482;9.108;2022-09-23T14:08:20;3.53;;;1.33;;
21843;SDS011;11084;52.482;9.108;2022-09-23T14:10:47;2.77;;;1.30;;
21843;SDS011;11084;52.482;9.108;2022-09-23T14:13:19;3.90;;;1.60;;
21843;SDS011;11084;52.482;9.108;2022-09-23T14:16:00;6.93;;;1.93;;
21843;SDS011;11084;52.482;9.108;2022-09-23T14:18:42;5.50;;;1.90;;
21843;SDS011;11084;52.482;9.108;2022-09-23T14:21:24;3.07;;;1.53;;
21843;SDS011;11084;52.482;9.108;2022-09-23T14:23:50;1.97;;;1.47;;
21843;SDS011;11084;52.482;9.108;2022-09-23T14:26:17;4.13;;;1.43;;
21843;SDS011;11084;52.482;9.108;2022-09-23T14:28:43;2.17;;;1.37;;
21843;SDS011;11084;52.482;9.108;2022-09-23T14:31:11;6.40;;;1.37;;
21843;SDS011;11084;52.482;9.108;2022-09-23T14:33:40;8.43;;;2.07;;
21843;SDS011;11084;52.482;9.108;2022-09-23T14:36:11;2.13;;;1.60;;
21843;SDS011;11084;52.482;9.108;2022-09-23T14:39:06;2.10;;;1.33;;
21843;SDS011;11084;52.482;9.108;2022-09-23T14:41:36;2.57;;;1.40;;
21843;SDS011;11084;52.482;9.108;2022-09-23T14:44:06;4.60;;;1.50;;
21843;SDS011;11084;52.482;9.108;2022-09-23T14:46:49;3.13;;;1.90;;
21843;SDS011;11084;52.482;9.108;2022-09-23T14:49:22;4.27;;;1.70;;
21843;SDS011;11084;52.482;9.108;2022-09-23T14:51:53;1.47;;;0.90;;
21843;SDS011;11084;52.482;9.108;2022-09-23T14:57:22;1.17;;;1.00;;
21843;SDS011;11084;52.482;9.108;2022-09-23T15:03:10;6.27;;;1.57;;
21843;SDS011;11084;52.482;9.108;2022-09-23T15:05:44;6.13;;;1.70;;
21843;SDS011;11084;52.482;9.108;2022-09-23T15:08:20;4.30;;;1.40;;
21843;SDS011;11084;52.482;9.108;2022-09-23T15:10:48;1.00;;;0.87;;
21843;SDS011;11084;52.482;9.108;2022-09-23T15:13:17;1.50;;;1.00;;
21843;SDS011;11084;52.482;9.108;2022-09-23T15:15:51;3.47;;;1.10;;
21843;SDS011;11084;52.482;9.108;2022-09-23T15:20:49;3.40;;;1.00;;
21843;SDS011;11084;52.482;9.108;2022-09-23T15:29:13;4.27;;;1.20;;
21843;SDS011;11084;52.482;9.108;2022-09-23T15:31:38;3.30;;;1.00;;
21843;SDS011;11084;52.482;9.108;2022-09-23T15:34:04;1.80;;;1.10;;
21843;SDS011;11084;52.482;9.108;2022-09-23T15:36:30;3.57;;;1.13;;
21843;SDS011;11084;52.482;9.108;2022-09-23T15:39:00;1.80;;;1.40;;
21843;SDS011;11084;52.482;9.108;2022-09-23T15:41:30;3.80;;;1.10;;
21843;SDS011;11084;52.482;9.108;2022-09-23T15:44:12;5.60;;;1.20;;
21843;SDS011;11084;52.482;9.108;2022-09-23T15:46:45;2.53;;;1.20;;
21843;SDS011;11084;52.482;9.108;2022-09-23T15:49:22;3.00;;;1.30;;
21843;SDS011;11084;52.482;9.108;2022-09-23T15:51:59;3.00;;;1.43;;
21843;SDS011;11084;52.482;9.108;2022-09-23T15:54:27;4.10;;;1.50;;
21843;SDS011;11084;52.482;9.108;2022-09-23T15:56:53;2.07;;;1.30;;
21843;SDS011;11084;52.482;9.108;2022-09-23T15:59:20;2.90;;;1.30;;
21843;SDS011;11084;52.482;9.108;2022-09-23T16:01:48;2.53;;;1.17;;
21843;SDS011;11084;52.482;9.108;2022-09-23T16:04:15;1.00;;;0.90;;
21843;SDS011;11084;52.482;9.108;2022-09-23T16:06:43;1.70;;;1.00;;
21843;SDS011;11084;52.482;9.108;2022-09-23T16:09:12;1.97;;;1.20;;
21843;SDS011;11084;52.482;9.108;2022-09-23T16:11:45;3.63;;;1.40;;
21843;SDS011;11084;52.482;9.108;2022-09-23T16:14:15;2.93;;;1.50;;
21843;SDS011;11084;52.482;9.108;2022-09-23T16:16:42;4.57;;;1.47;;
21843;SDS011;11084;52.482;9.108;2022-09-23T16:19:11;2.90;;;1.83;;
21843;SDS011;11084;52.482;9.108;2022-09-23T16:21:38;2.17;;;1.97;;
21843;SDS011;11084;52.482;9.108;2022-09-23T16:24:15;3.07;;;1.90;;
21843;SDS011;11084;52.482;9.108;2022-09-23T16:26:45;2.57;;;1.47;;
21843;SDS011;11084;52.482;9.108;2022-09-23T16:29:13;2.27;;;1.57;;
21843;SDS011;11084;52.482;9.108;2022-09-23T16:31:39;4.23;;;1.37;;
21843;SDS011;11084;52.482;9.108;2022-09-23T16:34:07;4.00;;;1.17;;
21843;SDS011;11084;52.482;9.108;2022-09-23T16:36:34;2.37;;;1.17;;
21843;SDS011;11084;52.482;9.108;2022-09-23T16:39:06;2.37;;;1.47;;
21843;SDS011;11084;52.482;9.108;2022-09-23T16:41:36;5.53;;;2.00;;
21843;SDS011;11084;52.482;9.108;2022-09-23T16:44:03;10.70;;;2.10;;
21843;SDS011;11084;52.482;9.108;2022-09-23T16:46:32;3.63;;;1.80;;
21843;SDS011;11084;52.482;9.108;2022-09-23T16:48:58;6.00;;;1.93;;
21843;SDS011;11084;52.482;9.108;2022-09-23T16:51:26;2.67;;;1.73;;
21843;SDS011;11084;52.482;9.108;2022-09-23T16:53:56;5.43;;;1.80;;
21843;SDS011;11084;52.482;9.108;2022-09-23T16:56:24;3.20;;;1.83;;
21843;SDS011;11084;52.482;9.108;2022-09-23T16:58:52;3.83;;;1.73;;
21843;SDS011;11084;52.482;9.108;2022-09-23T17:01:20;1.93;;;1.53;;
21843;SDS011;11084;52.482;9.108;2022-09-23T17:04:08;3.87;;;2.37;;
21843;SDS011;11084;52.482;9.108;2022-09-23T17:06:43;4.33;;;2.00;;
21843;SDS011;11084;52.482;9.108;2022-09-23T17:09:20;3.77;;;2.00;;
21843;SDS011;11084;52.482;9.108;2022-09-23T17:12:32;6.67;;;2.03;;
21843;SDS011;11084;52.482;9.108;2022-09-23T17:14:46;5.53;;;1.63;;
21843;SDS011;11084;52.482;9.108;2022-09-23T17:17:13;8.77;;;2.30;;
21843;SDS011;11084;52.482;9.108;2022-09-23T17:19:39;2.37;;;2.00;;
21843;SDS011;11084;52.482;9.108;2022-09-23T17:22:06;2.50;;;1.87;;
21843;SDS011;11084;52.482;9.108;2022-09-23T17:24:35;5.37;;;2.07;;
21843;SDS011;11084;52.482;9.108;2022-09-23T17:27:01;3.47;;;1.97;;
21843;SDS011;11084;52.482;9.108;2022-09-23T17:29:29;4.10;;;2.10;;
21843;SDS011;11084;52.482;9.108;2022-09-23T17:31:56;4.80;;;2.50;;
21843;SDS011;11084;52.482;9.108;2022-09-23T17:34:23;1.73;;;1.60;;
21843;SDS011;11084;52.482;9.108;2022-09-23T17:36:49;5.73;;;2.07;;
21843;SDS011;11084;52.482;9.108;2022-09-23T17:39:16;6.90;;;2.20;;
21843;SDS011;11084;52.482;9.108;2022-09-23T17:41:42;11.33;;;2.43;;
21843;SDS011;11084;52.482;9.108;2022-09-23T17:44:09;17.73;;;2.77;;
21843;SDS011;11084;52.482;9.108;2022-09-23T17:46:35;4.63;;;2.10;;
21843;SDS011;11084;52.482;9.108;2022-09-23T17:49:01;4.30;;;2.77;;
21843;SDS011;11084;52.482;9.108;2022-09-23T17:51:28;5.43;;;1.80;;
21843;SDS011;11084;52.482;9.108;2022-09-23T17:53:55;8.13;;;1.87;;
21843;SDS011;11084;52.482;9.108;2022-09-23T17:56:22;5.23;;;2.00;;
21843;SDS011;11084;52.482;9.108;2022-09-23T17:58:51;4.17;;;1.93;;
21843;SDS011;11084;52.482;9.108;2022-09-23T18:01:20;8.93;;;2.20;;
21843;SDS011;11084;52.482;9.108;2022-09-23T18:03:55;7.07;;;1.90;;
21843;SDS011;11084;52.482;9.108;2022-09-23T18:06:27;8.43;;;2.53;;
21843;SDS011;11084;52.482;9.108;2022-09-23T18:09:00;6.57;;;2.00;;
21843;SDS011;11084;52.482;9.108;2022-09-23T18:11:29;3.67;;;2.17;;
21843;SDS011;11084;52.482;9.108;2022-09-23T18:14:02;6.80;;;2.40;;
21843;SDS011;11084;52.482;9.108;2022-09-23T18:16:35;2.87;;;2.03;;
21843;SDS011;11084;52.482;9.108;2022-09-23T18:19:06;2.83;;;1.80;;
21843;SDS011;11084;52.482;9.108;2022-09-23T18:21:37;2.93;;;2.00;;